Time;durP1;ratioP1;P1;durP2;ratioP2;P2;SDS_P1;SDS_P2;PMS_P1;PMS_P2;Temp;Humidity;BMP_temperature;BMP_pressure;BME280_temperature;BME280_humidity;BME280_pressure;Samples;Min_cycle;Max_cycle;Signal;HPM_P1;HPM_P2
2022/05/18 00:00:27;;;;;;;5.85;4.80;;;21.40;66.90;;;;;;5070147;28;20215;-83
2022/05/18 00:03:04;;;;;;;5.85;4.55;;;21.20;67.60;;;;;;5083564;28;20202;-82
2022/05/18 00:05:31;;;;;;;4.97;4.05;;;21.20;67.10;;;;;;5080733;28;20689;-82
2022/05/18 00:07:57;;;;;;;4.95;4.35;;;21.40;65.60;;;;;;5077221;28;20215;-82
2022/05/18 00:10:23;;;;;;;4.63;4.22;;;21.30;66.10;;;;;;5076846;28;20245;-82
2022/05/18 00:12:50;;;;;;;4.82;4.30;;;21.50;65.20;;;;;;5078258;28;20211;-81
2022/05/18 00:15:19;;;;;;;4.95;4.03;;;21.60;64.50;;;;;;5081674;28;20735;-82
2022/05/18 00:17:44;;;;;;;5.22;4.22;;;21.70;63.80;;;;;;5083315;28;20264;-81
2022/05/18 00:20:12;;;;;;;4.15;3.85;;;21.80;63.30;;;;;;5074157;28;20275;-81
2022/05/18 00:22:50;;;;;;;4.72;3.90;;;21.80;63.80;;;;;;5079414;28;20191;-82
2022/05/18 00:25:20;;;;;;;4.47;4.05;;;21.80;64.30;;;;;;5083726;28;20183;-82
2022/05/18 00:27:46;;;;;;;4.65;4.07;;;21.80;63.80;;;;;;5077152;28;20194;-82
2022/05/18 00:30:15;;;;;;;5.38;3.92;;;21.80;63.90;;;;;;5084985;28;20245;-81
2022/05/18 00:32:41;;;;;;;4.07;3.50;;;21.80;63.90;;;;;;5078911;28;20185;-81
2022/05/18 00:35:08;;;;;;;4.38;4.07;;;21.70;65.30;;;;;;5080223;28;20251;-81
2022/05/18 00:37:33;;;;;;;4.18;3.78;;;21.50;64.80;;;;;;5077111;28;20271;-81
2022/05/18 00:39:59;;;;;;;5.05;4.10;;;21.30;65.50;;;;;;5081072;28;20203;-81
2022/05/18 00:42:27;;;;;;;4.30;4.00;;;21.00;66.40;;;;;;5079574;28;20191;-81
2022/05/18 00:44:53;;;;;;;4.70;3.78;;;21.10;66.60;;;;;;5091066;28;20270;-81
2022/05/18 00:47:20;;;;;;;5.50;4.05;;;21.20;66.00;;;;;;5083899;28;20190;-82
2022/05/18 00:49:50;;;;;;;5.03;3.95;;;21.30;65.50;;;;;;5077682;28;20215;-81
2022/05/18 00:52:20;;;;;;;5.38;3.63;;;21.30;65.40;;;;;;5083999;28;20210;-83
2022/05/18 00:54:48;;;;;;;4.50;4.10;;;21.40;65.30;;;;;;5080825;28;20183;-81
2022/05/18 00:57:19;;;;;;;4.35;3.70;;;21.40;65.10;;;;;;5080270;28;20184;-81
2022/05/18 00:59:52;;;;;;;3.97;3.67;;;21.40;65.40;;;;;;5076796;28;20219;-82
2022/05/18 01:02:20;;;;;;;4.28;3.88;;;21.40;65.20;;;;;;5078412;28;20226;-81
2022/05/18 01:04:49;;;;;;;4.32;3.92;;;21.30;65.60;;;;;;5076946;28;20191;-81
2022/05/18 01:07:22;;;;;;;5.50;3.80;;;21.30;66.00;;;;;;5075889;28;20217;-81
2022/05/18 01:09:50;;;;;;;3.78;3.42;;;21.30;65.70;;;;;;5076169;28;20223;-82
2022/05/18 01:12:18;;;;;;;4.00;3.60;;;21.30;66.10;;;;;;5082849;28;20200;-81
2022/05/18 01:14:53;;;;;;;5.28;3.92;;;21.20;66.30;;;;;;5083009;28;20226;-82
2022/05/18 01:17:31;;;;;;;4.90;4.03;;;21.30;66.30;;;;;;5082670;28;20199;-82
2022/05/18 01:20:00;;;;;;;3.78;3.47;;;21.30;65.80;;;;;;5083978;28;20207;-82
2022/05/18 01:22:54;;;;;;;4.10;3.63;;;21.30;65.90;;;;;;5078497;28;20196;-81
2022/05/18 01:25:25;;;;;;;4.10;3.78;;;21.30;65.70;;;;;;5076678;28;20478;-81
2022/05/18 01:27:52;;;;;;;3.65;3.35;;;21.30;65.40;;;;;;5083754;28;20711;-81
2022/05/18 01:30:18;;;;;;;3.83;3.30;;;21.30;64.70;;;;;;5080819;28;20229;-81
2022/05/18 01:32:48;;;;;;;4.38;3.63;;;21.30;63.80;;;;;;5078785;28;20210;-82
2022/05/18 01:35:26;;;;;;;3.53;3.22;;;21.30;63.50;;;;;;5075014;28;20180;-81
2022/05/18 01:37:57;;;;;;;4.35;3.42;;;21.20;62.60;;;;;;5073848;28;20191;-82
2022/05/18 01:40:41;;;;;;;3.70;3.40;;;21.00;62.70;;;;;;5074768;28;20232;-81
2022/05/18 01:43:29;;;;;;;3.50;3.25;;;20.80;63.20;;;;;;5084165;28;20182;-81
2022/05/18 01:45:57;;;;;;;3.55;3.25;;;20.70;63.60;;;;;;5071812;28;20178;-81
2022/05/18 01:48:30;;;;;;;3.75;3.45;;;20.70;64.30;;;;;;5076182;28;20214;-82
2022/05/18 01:50:59;;;;;;;4.20;3.53;;;20.60;64.90;;;;;;5079895;28;20225;-81
2022/05/18 01:53:25;;;;;;;4.88;3.55;;;20.60;64.30;;;;;;5076958;28;20210;-81
2022/05/18 01:55:51;;;;;;;3.90;3.58;;;20.60;65.50;;;;;;5083194;28;20279;-83
2022/05/18 01:58:16;;;;;;;3.60;3.30;;;20.60;65.40;;;;;;5067127;28;20193;-83
2022/05/18 02:00:44;;;;;;;4.07;3.67;;;20.50;65.50;;;;;;5071080;28;20207;-84
2022/05/18 02:03:10;;;;;;;3.75;3.45;;;20.60;65.60;;;;;;5081661;28;20185;-82
2022/05/18 02:05:36;;;;;;;4.05;3.65;;;20.40;67.00;;;;;;5076843;28;20224;-81
2022/05/18 02:08:04;;;;;;;3.85;3.55;;;20.10;69.10;;;;;;5079887;28;20206;-81
2022/05/18 02:10:30;;;;;;;3.35;3.15;;;20.00;69.70;;;;;;5076409;28;20232;-81
2022/05/18 02:12:56;;;;;;;3.90;3.58;;;20.00;69.20;;;;;;5074982;28;20632;-81
2022/05/18 02:15:24;;;;;;;5.20;3.75;;;20.20;68.60;;;;;;5079582;28;20189;-81
2022/05/18 02:17:51;;;;;;;4.22;3.65;;;20.20;68.20;;;;;;5084000;28;20262;-81
2022/05/18 02:20:18;;;;;;;5.55;3.70;;;20.30;68.40;;;;;;5079868;28;20314;-82
2022/05/18 02:22:44;;;;;;;3.80;3.50;;;20.30;67.90;;;;;;5081129;28;20179;-81
2022/05/18 02:25:10;;;;;;;4.22;3.80;;;20.30;67.60;;;;;;5083186;28;20179;-81
2022/05/18 02:27:36;;;;;;;4.13;3.72;;;20.40;67.40;;;;;;5079895;28;20198;-81
2022/05/18 02:30:04;;;;;;;3.80;3.50;;;20.40;67.40;;;;;;5083318;28;20211;-82
2022/05/18 02:32:30;;;;;;;4.50;3.50;;;20.40;68.40;;;;;;5082787;28;20252;-81
2022/05/18 02:34:55;;;;;;;4.60;3.42;;;20.40;67.80;;;;;;5084056;28;20648;-81
2022/05/18 02:37:21;;;;;;;4.30;3.90;;;20.30;68.50;;;;;;5080866;28;20210;-81
2022/05/18 02:39:47;;;;;;;3.92;3.63;;;20.10;69.20;;;;;;5079004;28;20206;-81
2022/05/18 02:42:13;;;;;;;3.92;3.58;;;20.10;69.60;;;;;;5080025;28;20278;-81
2022/05/18 02:44:38;;;;;;;5.97;3.30;;;20.00;70.40;;;;;;5082448;28;20234;-80
2022/05/18 02:47:04;;;;;;;3.80;3.50;;;20.00;69.90;;;;;;5085794;28;20213;-81
2022/05/18 02:49:31;;;;;;;4.10;3.70;;;20.10;69.80;;;;;;5081892;28;20238;-81
2022/05/18 02:51:57;;;;;;;3.85;3.55;;;20.10;70.10;;;;;;5076324;28;20213;-81
2022/05/18 02:57:08;;;;;;;4.15;3.60;;;20.10;69.60;;;;;;5071230;28;20187;-81
2022/05/18 02:59:34;;;;;;;11.23;3.97;;;20.00;69.60;;;;;;5073612;28;20355;-81
2022/05/18 03:02:00;;;;;;;4.00;3.55;;;20.00;69.20;;;;;;5079641;28;20224;-81
2022/05/18 03:04:27;;;;;;;4.65;3.67;;;20.10;69.20;;;;;;5075246;28;20195;-83
2022/05/18 03:06:52;;;;;;;3.95;3.53;;;20.00;69.50;;;;;;5073480;28;20201;-81
2022/05/18 03:09:18;;;;;;;4.18;3.58;;;19.90;70.50;;;;;;5070435;28;20249;-82
2022/05/18 03:11:46;;;;;;;3.85;3.53;;;19.80;70.70;;;;;;5076360;28;20203;-81
2022/05/18 03:14:12;;;;;;;3.88;3.38;;;19.90;70.20;;;;;;5075202;28;20607;-81
2022/05/18 03:16:39;;;;;;;3.50;3.30;;;20.00;69.60;;;;;;5077553;28;20207;-81
2022/05/18 03:19:05;;;;;;;3.70;3.40;;;19.90;69.10;;;;;;5081148;28;20711;-81
2022/05/18 03:24:14;;;;;;;3.65;3.35;;;19.90;69.30;;;;;;5073554;28;20186;-80
2022/05/18 03:26:40;;;;;;;3.50;3.20;;;19.80;69.30;;;;;;5077076;28;20188;-80
2022/05/18 03:29:06;;;;;;;3.90;3.60;;;19.80;69.10;;;;;;5073460;28;20636;-81
2022/05/18 03:31:32;;;;;;;3.45;3.25;;;19.80;69.50;;;;;;5075810;28;20193;-81
2022/05/18 03:34:00;;;;;;;3.53;3.28;;;19.80;69.10;;;;;;5074503;28;20265;-81
2022/05/18 03:36:27;;;;;;;3.88;3.58;;;19.80;69.10;;;;;;5071930;28;20317;-81
2022/05/18 03:38:53;;;;;;;3.97;3.58;;;19.80;69.20;;;;;;5072179;28;20216;-81
2022/05/18 03:41:19;;;;;;;4.35;4.05;;;19.60;70.10;;;;;;5072455;28;20202;-81
2022/05/18 03:43:45;;;;;;;6.55;3.72;;;19.70;70.10;;;;;;5079168;28;20198;-82
2022/05/18 03:46:12;;;;;;;3.67;3.38;;;19.70;70.10;;;;;;5077597;28;20181;-81
2022/05/18 03:48:39;;;;;;;4.00;3.70;;;19.60;69.40;;;;;;5072959;28;20222;-81
2022/05/18 03:51:08;;;;;;;4.10;3.80;;;19.40;70.10;;;;;;5073792;28;20212;-81
2022/05/18 03:53:34;;;;;;;6.13;3.78;;;19.40;71.00;;;;;;5075444;28;20848;-81
2022/05/18 03:56:01;;;;;;;5.40;3.85;;;19.40;71.10;;;;;;5076702;28;20290;-82
2022/05/18 03:58:27;;;;;;;3.95;3.65;;;19.40;71.30;;;;;;5076159;28;20253;-81
2022/05/18 04:00:55;;;;;;;4.50;3.53;;;19.40;71.80;;;;;;5073142;28;20686;-81
2022/05/18 04:03:25;;;;;;;5.20;3.78;;;19.30;71.90;;;;;;5073555;28;20191;-81
2022/05/18 04:05:52;;;;;;;3.47;3.28;;;19.40;72.10;;;;;;5073971;28;20187;-82
2022/05/18 04:08:18;;;;;;;4.75;3.63;;;19.40;72.30;;;;;;5079202;28;20239;-81
2022/05/18 04:10:44;;;;;;;3.97;3.60;;;19.30;71.90;;;;;;5077901;28;20208;-81
2022/05/18 04:13:15;;;;;;;4.57;3.53;;;19.30;71.90;;;;;;5076981;28;20186;-81
2022/05/18 04:15:42;;;;;;;17.52;5.03;;;19.40;72.50;;;;;;5078989;28;20216;-81
2022/05/18 04:18:08;;;;;;;7.47;4.05;;;19.40;71.50;;;;;;5076973;28;20222;-81
2022/05/18 04:20:34;;;;;;;10.63;4.40;;;19.40;71.50;;;;;;5068869;28;20208;-81
2022/05/18 04:23:00;;;;;;;5.80;3.85;;;19.30;71.40;;;;;;5073044;28;20248;-81
2022/05/18 04:25:27;;;;;;;4.57;3.95;;;19.40;71.10;;;;;;5076627;28;20217;-81
2022/05/18 04:27:54;;;;;;;4.95;3.78;;;19.40;71.20;;;;;;5079104;28;20542;-81
2022/05/18 04:30:23;;;;;;;14.15;4.63;;;19.40;71.40;;;;;;5072177;28;20207;-81
2022/05/18 04:32:49;;;;;;;4.68;4.22;;;19.40;71.40;;;;;;5074829;28;20191;-82
2022/05/18 04:35:18;;;;;;;4.75;4.07;;;19.30;72.00;;;;;;5076721;28;20363;-81
2022/05/18 04:37:44;;;;;;;4.35;3.70;;;19.10;73.10;;;;;;5071313;28;20274;-80
2022/05/18 04:40:10;;;;;;;4.60;3.63;;;19.10;73.70;;;;;;5078504;28;20223;-80
2022/05/18 04:42:36;;;;;;;5.68;3.60;;;19.10;73.60;;;;;;5073360;28;20623;-80
2022/05/18 04:45:04;;;;;;;6.38;3.60;;;19.10;73.50;;;;;;5071793;28;20665;-80
2022/05/18 04:47:30;;;;;;;11.27;3.92;;;19.10;73.60;;;;;;5072522;28;20435;-81
2022/05/18 04:49:56;;;;;;;5.00;3.60;;;19.30;73.80;;;;;;5073709;28;20221;-82
2022/05/18 04:52:22;;;;;;;5.97;3.50;;;19.30;73.70;;;;;;5070073;28;20199;-80
2022/05/18 04:54:49;;;;;;;4.97;3.80;;;19.30;74.00;;;;;;5070960;28;20195;-81
2022/05/18 04:57:15;;;;;;;4.47;4.10;;;19.40;73.60;;;;;;5071417;28;20470;-81
2022/05/18 04:59:41;;;;;;;6.03;3.97;;;19.60;73.00;;;;;;5072153;28;20208;-80
2022/05/18 05:02:07;;;;;;;4.60;4.10;;;19.50;73.20;;;;;;5069611;28;20192;-80
2022/05/18 05:04:34;;;;;;;6.18;4.60;;;19.60;73.20;;;;;;5074535;28;20189;-81
2022/05/18 05:07:00;;;;;;;4.68;3.92;;;19.60;73.90;;;;;;5069983;28;20193;-81
2022/05/18 05:09:26;;;;;;;5.35;4.10;;;19.60;73.80;;;;;;5078895;28;20591;-82
2022/05/18 05:11:53;;;;;;;7.20;5.35;;;19.70;73.60;;;;;;5095123;28;20184;-81
2022/05/18 05:14:20;;;;;;;4.88;4.38;;;19.70;74.00;;;;;;5081887;28;20194;-81
2022/05/18 05:16:46;;;;;;;4.97;4.15;;;19.70;74.60;;;;;;5075540;28;20233;-81
2022/05/18 05:19:13;;;;;;;7.10;4.82;;;19.80;74.10;;;;;;5079667;28;20227;-81
2022/05/18 05:21:42;;;;;;;6.40;4.70;;;19.70;75.80;;;;;;5075604;28;20191;-80
2022/05/18 05:24:14;;;;;;;5.10;4.60;;;19.60;76.70;;;;;;5079371;28;20201;-81
2022/05/18 05:26:41;;;;;;;4.63;4.05;;;19.60;76.90;;;;;;5078909;28;20187;-80
2022/05/18 05:29:07;;;;;;;5.90;5.03;;;19.60;76.30;;;;;;5083137;28;20225;-82
2022/05/18 05:31:32;;;;;;;5.28;4.60;;;19.70;76.30;;;;;;5084485;28;20290;-82
2022/05/18 05:33:58;;;;;;;5.70;5.15;;;19.70;76.20;;;;;;5081956;28;20190;-81
2022/05/18 05:36:25;;;;;;;6.80;4.65;;;19.70;75.90;;;;;;5084142;28;20211;-81
2022/05/18 05:38:51;;;;;;;5.15;4.65;;;19.70;75.90;;;;;;5082519;28;20190;-82
2022/05/18 05:41:17;;;;;;;7.30;5.38;;;19.80;75.50;;;;;;5083604;28;20214;-81
2022/05/18 05:43:43;;;;;;;5.78;5.20;;;19.80;75.50;;;;;;5084267;28;20713;-81
2022/05/18 05:46:13;;;;;;;7.82;4.97;;;19.90;75.20;;;;;;5082309;28;20209;-81
2022/05/18 05:48:41;;;;;;;13.55;5.65;;;19.90;75.30;;;;;;5083665;28;20288;-82
2022/05/18 05:51:11;;;;;;;8.43;4.85;;;20.00;75.00;;;;;;5084961;28;20256;-81
2022/05/18 05:53:39;;;;;;;6.13;5.35;;;20.10;75.20;;;;;;5082026;28;20186;-81
2022/05/18 05:56:06;;;;;;;6.28;4.95;;;20.20;74.60;;;;;;5081952;28;20280;-81
2022/05/18 05:58:34;;;;;;;5.75;4.85;;;20.10;74.80;;;;;;5082647;28;20182;-81
2022/05/18 06:01:01;;;;;;;5.55;4.93;;;20.20;74.80;;;;;;5080249;28;20212;-83
2022/05/18 06:03:27;;;;;;;7.75;4.90;;;20.20;74.80;;;;;;5080410;28;20200;-81
2022/05/18 06:05:55;;;;;;;5.53;4.75;;;20.10;74.40;;;;;;5081204;28;20189;-81
2022/05/18 06:08:21;;;;;;;6.38;5.13;;;20.00;75.90;;;;;;5080183;28;20274;-82
2022/05/18 06:10:47;;;;;;;7.57;5.50;;;20.00;75.60;;;;;;5081735;28;20208;-82
2022/05/18 06:13:13;;;;;;;6.95;5.05;;;19.90;76.00;;;;;;5081114;28;20184;-82
2022/05/18 06:15:39;;;;;;;5.55;5.05;;;19.90;76.60;;;;;;5080327;28;20202;-82
2022/05/18 06:18:05;;;;;;;5.43;4.75;;;20.10;76.30;;;;;;5081218;28;20657;-82
2022/05/18 06:20:31;;;;;;;7.90;5.32;;;20.20;75.90;;;;;;5078857;28;20234;-82
2022/05/18 06:23:04;;;;;;;5.70;5.20;;;20.30;76.00;;;;;;5078015;28;20834;-81
2022/05/18 06:25:29;;;;;;;6.07;5.13;;;20.30;75.00;;;;;;5077379;28;20195;-83
2022/05/18 06:27:55;;;;;;;7.20;4.53;;;20.30;75.50;;;;;;5068161;28;20208;-83
2022/05/18 06:30:22;;;;;;;9.05;5.25;;;20.40;75.00;;;;;;5075795;28;20257;-83
2022/05/18 06:32:47;;;;;;;6.05;4.82;;;20.60;74.60;;;;;;5077809;28;20194;-83
2022/05/18 06:35:13;;;;;;;6.63;5.68;;;20.70;73.90;;;;;;5080381;28;20194;-82
2022/05/18 06:37:39;;;;;;;11.63;6.63;;;20.80;72.80;;;;;;5077360;28;20199;-81
2022/05/18 06:40:07;;;;;;;6.53;5.97;;;20.80;72.10;;;;;;5075391;28;20248;-82
2022/05/18 06:42:33;;;;;;;5.63;4.93;;;20.90;70.30;;;;;;5073808;28;20196;-80
2022/05/18 06:44:59;;;;;;;6.38;5.10;;;21.00;69.50;;;;;;5078468;28;20201;-82
2022/05/18 06:47:26;;;;;;;6.25;5.00;;;21.10;69.20;;;;;;5072968;28;20213;-83
2022/05/18 06:49:53;;;;;;;11.13;5.53;;;21.10;68.70;;;;;;5075863;28;20755;-82
2022/05/18 06:52:19;;;;;;;5.80;5.30;;;21.10;68.80;;;;;;5072906;28;20193;-83
2022/05/18 06:54:45;;;;;;;6.03;5.53;;;21.10;69.30;;;;;;5067219;28;20272;-82
2022/05/18 06:57:11;;;;;;;7.72;5.38;;;21.20;70.10;;;;;;5078856;28;20180;-82
2022/05/18 06:59:37;;;;;;;5.95;5.43;;;21.30;68.30;;;;;;5075848;28;20213;-82
2022/05/18 07:02:03;;;;;;;6.95;5.32;;;21.40;67.00;;;;;;5073437;28;20199;-83
2022/05/18 07:04:29;;;;;;;7.93;5.03;;;21.40;67.10;;;;;;5073573;28;20188;-81
2022/05/18 07:06:55;;;;;;;6.80;5.28;;;21.50;67.10;;;;;;5077995;28;20681;-80
2022/05/18 07:09:22;;;;;;;7.30;5.22;;;21.60;66.10;;;;;;5078757;28;20222;-83
2022/05/18 07:11:49;;;;;;;5.82;5.22;;;21.60;66.70;;;;;;5078655;28;20191;-82
2022/05/18 07:14:17;;;;;;;6.18;5.10;;;21.70;67.10;;;;;;5074591;28;20191;-83
2022/05/18 07:16:45;;;;;;;4.82;4.35;;;21.80;64.00;;;;;;5076832;28;20214;-83
2022/05/18 07:19:12;;;;;;;5.47;4.97;;;21.90;64.00;;;;;;5075939;28;20203;-83
2022/05/18 07:21:38;;;;;;;7.75;5.32;;;22.00;63.80;;;;;;5081657;28;20264;-80
2022/05/18 07:24:05;;;;;;;8.30;4.78;;;22.10;64.40;;;;;;5084046;28;20191;-81
2022/05/18 07:26:31;;;;;;;5.70;4.88;;;22.30;64.30;;;;;;5081248;28;20214;-81
2022/05/18 07:28:58;;;;;;;5.80;5.03;;;22.40;63.70;;;;;;5082611;28;20204;-83
2022/05/18 07:31:25;;;;;;;6.70;5.75;;;22.60;61.60;;;;;;5082903;28;20184;-82
2022/05/18 07:33:51;;;;;;;11.05;5.70;;;22.70;61.40;;;;;;5080789;28;20179;-82
2022/05/18 07:36:18;;;;;;;8.65;5.40;;;22.70;59.70;;;;;;5083549;28;20180;-83
2022/05/18 07:38:44;;;;;;;8.13;5.03;;;22.80;59.70;;;;;;5077279;28;20200;-81
2022/05/18 07:41:13;;;;;;;6.78;5.07;;;22.90;59.50;;;;;;5080452;28;20212;-81
2022/05/18 07:43:39;;;;;;;6.40;5.00;;;23.00;58.50;;;;;;5080438;28;20884;-82
2022/05/18 07:46:06;;;;;;;5.55;4.82;;;23.10;58.20;;;;;;5080110;28;20195;-81
2022/05/18 07:48:33;;;;;;;7.50;5.03;;;23.10;57.90;;;;;;5083108;28;20417;-82
2022/05/18 07:50:59;;;;;;;6.05;5.00;;;23.20;57.80;;;;;;5084080;28;20208;-81
2022/05/18 07:53:26;;;;;;;7.90;5.10;;;23.30;57.40;;;;;;5082952;28;20547;-81
2022/05/18 07:55:52;;;;;;;7.30;4.57;;;23.40;57.60;;;;;;5082524;28;20179;-81
2022/05/18 07:58:20;;;;;;;6.60;5.25;;;23.50;58.00;;;;;;5083603;28;20682;-81
2022/05/18 08:00:46;;;;;;;7.63;5.03;;;23.60;56.40;;;;;;5084024;28;20848;-80
2022/05/18 08:03:13;;;;;;;8.43;5.03;;;23.70;57.40;;;;;;5084138;28;20196;-82
2022/05/18 08:05:44;;;;;;;10.05;4.90;;;23.70;57.10;;;;;;5078147;28;20333;-82
2022/05/18 08:08:13;;;;;;;5.88;5.28;;;23.80;58.50;;;;;;5077160;28;20208;-83
2022/05/18 08:16:10;;;;;;;6.22;4.63;;;24.10;58.40;;;;;;5076833;28;20206;-80
2022/05/18 08:18:36;;;;;;;5.45;4.75;;;24.30;58.10;;;;;;5077666;28;20220;-83
2022/05/18 08:21:02;;;;;;;7.35;5.30;;;24.30;57.70;;;;;;5075671;28;20250;-83
2022/05/18 08:23:28;;;;;;;5.93;4.93;;;24.40;58.00;;;;;;5075181;28;20195;-82
2022/05/18 08:25:57;;;;;;;7.38;4.90;;;24.60;56.60;;;;;;5076831;28;20198;-83
2022/05/18 08:28:24;;;;;;;6.80;5.53;;;24.50;56.50;;;;;;5072400;28;20221;-82
2022/05/18 08:30:50;;;;;;;6.43;5.10;;;24.70;57.10;;;;;;5083540;28;20646;-83
2022/05/18 08:33:16;;;;;;;7.60;5.30;;;24.80;57.30;;;;;;5080704;28;20627;-82
2022/05/18 08:35:44;;;;;;;5.72;4.70;;;24.90;56.70;;;;;;5077380;28;20183;-83
2022/05/18 08:38:10;;;;;;;11.32;5.35;;;25.20;54.20;;;;;;5080458;28;20191;-81
2022/05/18 08:41:12;;;;;;;7.43;4.68;;;25.40;53.90;;;;;;5078144;28;20216;-83
2022/05/18 08:43:44;;;;;;;5.35;4.85;;;25.50;52.70;;;;;;5074070;28;20535;-82
2022/05/18 08:46:44;;;;;;;7.22;5.15;;;25.60;51.70;;;;;;5080428;28;20205;-82
2022/05/18 08:49:19;;;;;;;6.40;5.72;;;25.70;51.90;;;;;;5079138;28;20262;-82
2022/05/18 08:52:07;;;;;;;6.32;5.47;;;25.70;51.30;;;;;;5080778;28;20183;-83
2022/05/18 08:54:51;;;;;;;5.40;4.90;;;25.80;51.30;;;;;;5071659;28;20540;-81
2022/05/18 08:57:25;;;;;;;9.60;5.43;;;25.90;52.90;;;;;;5073445;28;20179;-82
2022/05/18 08:59:56;;;;;;;6.70;5.22;;;26.10;51.60;;;;;;5081785;28;20227;-83
2022/05/18 09:02:27;;;;;;;8.10;5.50;;;26.20;50.60;;;;;;5075503;28;20255;-82
2022/05/18 09:05:00;;;;;;;8.85;5.40;;;26.40;50.30;;;;;;5081015;28;20342;-83
2022/05/18 09:07:36;;;;;;;5.30;4.80;;;26.50;50.80;;;;;;5076451;28;20659;-83
2022/05/18 09:10:13;;;;;;;5.38;4.88;;;26.60;49.70;;;;;;5076692;28;20238;-83
2022/05/18 09:12:45;;;;;;;5.47;4.93;;;26.80;49.90;;;;;;5078065;28;20579;-83
2022/05/18 09:15:17;;;;;;;6.35;5.32;;;27.00;50.20;;;;;;5083005;28;20188;-83
2022/05/18 09:17:51;;;;;;;6.10;5.60;;;26.90;48.00;;;;;;5075945;28;20186;-83
2022/05/18 09:20:32;;;;;;;6.13;5.22;;;27.00;47.90;;;;;;5071441;28;20742;-82
2022/05/18 09:23:04;;;;;;;5.82;5.32;;;27.30;47.00;;;;;;5073191;28;20259;-81
2022/05/18 09:25:45;;;;;;;7.50;5.32;;;27.50;47.20;;;;;;5075115;28;20183;-83
2022/05/18 09:28:23;;;;;;;6.53;4.80;;;27.70;45.40;;;;;;5077476;28;20212;-80
2022/05/18 09:30:57;;;;;;;7.25;5.28;;;27.70;46.60;;;;;;5079697;28;20195;-83
2022/05/18 09:33:41;;;;;;;6.68;5.30;;;27.70;46.10;;;;;;5076520;28;20713;-84
2022/05/18 09:36:18;;;;;;;5.18;4.68;;;27.80;43.00;;;;;;5073456;28;20274;-83
2022/05/18 09:38:56;;;;;;;4.50;4.20;;;27.90;42.00;;;;;;5074749;28;20602;-81
2022/05/18 09:41:28;;;;;;;5.30;4.80;;;28.10;42.50;;;;;;5074868;28;20344;-83
2022/05/18 09:44:23;;;;;;;4.72;4.32;;;28.10;39.00;;;;;;5080557;28;20195;-81
2022/05/18 09:46:50;;;;;;;5.40;4.65;;;28.30;37.80;;;;;;5079363;28;20180;-81
2022/05/18 09:49:30;;;;;;;7.65;5.43;;;28.50;42.80;;;;;;5074435;28;20633;-81
2022/05/18 09:51:59;;;;;;;6.00;5.03;;;28.80;43.30;;;;;;5078046;28;20179;-81
2022/05/18 09:54:25;;;;;;;5.80;5.20;;;28.90;42.20;;;;;;5074103;28;20187;-80
2022/05/18 09:57:05;;;;;;;6.65;5.03;;;28.80;40.90;;;;;;5084885;28;20824;-82
2022/05/18 09:59:35;;;;;;;5.18;4.72;;;28.90;39.70;;;;;;5074905;28;20207;-81
2022/05/18 10:07:50;;;;;;;5.40;5.00;;;29.10;39.80;;;;;;5080424;28;20681;-81
2022/05/18 10:10:25;;;;;;;5.35;4.90;;;29.10;40.70;;;;;;5073909;28;20277;-82
2022/05/18 10:12:54;;;;;;;5.40;4.90;;;29.40;39.80;;;;;;5075415;28;20494;-81
2022/05/18 10:15:25;;;;;;;5.45;4.95;;;29.40;39.40;;;;;;5082033;28;20195;-83
2022/05/18 10:18:19;;;;;;;5.47;4.97;;;29.50;38.60;;;;;;5082889;28;20663;-82
2022/05/18 10:21:26;;;;;;;5.90;5.32;;;29.80;38.10;;;;;;5051756;28;20750;-80
2022/05/18 10:23:52;;;;;;;5.10;4.68;;;30.00;38.60;;;;;;5018054;28;20204;-82
2022/05/18 10:26:20;;;;;;;7.47;6.22;;;30.30;37.70;;;;;;5065680;28;20200;-82
2022/05/18 10:28:57;;;;;;;6.10;5.50;;;30.50;37.00;;;;;;5077637;28;20253;-82
2022/05/18 10:31:34;;;;;;;5.72;4.78;;;30.60;37.00;;;;;;5075341;28;20218;-80
2022/05/18 10:34:14;;;;;;;6.80;4.80;;;30.50;36.20;;;;;;5073059;28;20237;-80
2022/05/18 10:36:43;;;;;;;5.43;4.70;;;30.70;36.90;;;;;;5070257;28;20551;-83
2022/05/18 10:39:09;;;;;;;5.28;4.78;;;31.10;33.30;;;;;;5072659;28;20208;-82
2022/05/18 10:41:45;;;;;;;5.13;4.60;;;31.10;33.40;;;;;;5081358;28;20187;-81
2022/05/18 10:44:20;;;;;;;4.82;4.50;;;31.30;32.10;;;;;;5083845;28;20183;-84
2022/05/18 10:46:49;;;;;;;6.15;5.63;;;31.30;33.70;;;;;;5076576;28;20196;-82
2022/05/18 10:49:33;;;;;;;6.43;5.82;;;31.20;35.30;;;;;;5074447;28;20219;-83
2022/05/18 10:52:10;;;;;;;8.02;4.93;;;31.10;34.10;;;;;;5079717;28;20186;-82
2022/05/18 10:54:36;;;;;;;5.55;5.00;;;31.10;34.90;;;;;;5072990;28;20192;-81
2022/05/18 10:57:15;;;;;;;7.00;5.00;;;31.50;34.30;;;;;;5072637;28;20188;-81
2022/05/18 10:59:53;;;;;;;4.97;4.57;;;31.40;34.50;;;;;;5070103;28;20204;-83
2022/05/18 11:02:53;;;;;;;5.95;4.78;;;31.60;30.60;;;;;;5072332;28;20677;-82
2022/05/18 11:05:47;;;;;;;4.65;4.35;;;31.70;30.70;;;;;;5073078;28;20235;-81
2022/05/18 11:08:17;;;;;;;4.40;4.10;;;31.80;29.90;;;;;;5072424;28;20670;-84
2022/05/18 11:11:04;;;;;;;5.50;4.57;;;32.00;29.80;;;;;;5073242;28;20588;-82
2022/05/18 11:13:35;;;;;;;4.80;4.20;;;32.40;29.70;;;;;;5084681;28;20184;-81
2022/05/18 11:16:31;;;;;;;5.10;4.70;;;32.50;29.50;;;;;;5069335;28;20791;-83
2022/05/18 11:19:21;;;;;;;4.47;4.05;;;32.80;28.20;;;;;;5065477;28;20212;-82
2022/05/18 11:21:55;;;;;;;4.63;4.28;;;32.70;28.40;;;;;;5073421;28;20676;-81
2022/05/18 11:24:46;;;;;;;4.28;3.88;;;32.90;28.10;;;;;;5081280;28;20194;-81
2022/05/18 11:27:29;;;;;;;4.40;4.03;;;33.00;27.90;;;;;;5085200;28;20175;-83
2022/05/18 11:30:17;;;;;;;4.60;4.30;;;32.40;27.90;;;;;;5081188;28;20219;-81
2022/05/18 11:33:02;;;;;;;4.40;4.07;;;32.50;28.30;;;;;;5086875;28;20179;-82
2022/05/18 11:35:59;;;;;;;5.60;4.10;;;33.10;28.00;;;;;;5092499;28;20176;-81
2022/05/18 11:38:40;;;;;;;5.28;4.13;;;33.40;28.00;;;;;;5079899;28;20183;-82
2022/05/18 11:41:31;;;;;;;7.10;4.25;;;33.70;28.00;;;;;;5080963;28;20199;-84
2022/05/18 11:44:05;;;;;;;5.75;4.10;;;33.70;27.40;;;;;;5069906;28;20188;-81
2022/05/18 11:46:42;;;;;;;4.82;4.47;;;33.60;26.80;;;;;;5078120;28;20547;-81
2022/05/18 11:49:23;;;;;;;4.30;4.00;;;33.60;26.70;;;;;;5069863;28;20713;-80
2022/05/18 11:52:14;;;;;;;6.55;4.72;;;33.70;27.30;;;;;;5073720;28;20190;-80
2022/05/18 11:54:54;;;;;;;4.55;4.15;;;33.50;28.50;;;;;;5068783;28;20180;-81
2022/05/18 11:58:44;;;;;;;5.63;5.00;;;33.60;27.90;;;;;;5070863;28;20183;-81
2022/05/18 12:01:41;;;;;;;4.20;3.90;;;34.10;28.50;;;;;;4931975;28;20211;-80
2022/05/18 12:04:15;;;;;;;6.22;4.70;;;34.00;27.40;;;;;;5073752;28;20183;-81
2022/05/18 12:07:04;;;;;;;7.32;4.70;;;34.20;27.30;;;;;;5073086;28;20178;-83
2022/05/18 12:09:36;;;;;;;4.40;4.10;;;34.50;26.60;;;;;;5072288;28;20233;-83
2022/05/18 12:12:15;;;;;;;4.32;4.00;;;34.60;26.40;;;;;;5075530;28;20229;-82
2022/05/18 12:14:47;;;;;;;4.72;4.13;;;34.50;26.50;;;;;;5074650;28;20190;-80
2022/05/18 12:17:39;;;;;;;4.30;4.00;;;34.20;27.30;;;;;;5073726;28;20196;-82
2022/05/18 12:20:40;;;;;;;6.07;4.05;;;34.20;26.80;;;;;;5075458;28;20241;-81
2022/05/18 12:23:10;;;;;;;5.63;3.95;;;33.90;26.30;;;;;;5054213;28;20210;-82
2022/05/18 12:25:37;;;;;;;5.22;3.97;;;33.60;27.20;;;;;;5072529;28;20200;-81
2022/05/18 12:28:06;;;;;;;6.32;4.30;;;33.50;27.30;;;;;;5077222;28;20188;-82
2022/05/18 12:30:36;;;;;;;4.40;4.10;;;33.60;27.60;;;;;;5077912;28;20229;-82
2022/05/18 12:33:04;;;;;;;4.90;4.43;;;34.00;27.40;;;;;;5077145;28;20175;-80
2022/05/18 12:35:35;;;;;;;4.45;4.13;;;33.30;27.30;;;;;;5080048;28;20168;-82
2022/05/18 12:38:10;;;;;;;4.57;4.18;;;33.50;28.10;;;;;;5076949;28;20667;-83
2022/05/18 12:40:50;;;;;;;4.65;3.90;;;34.00;27.80;;;;;;5076355;28;20196;-82
2022/05/18 12:43:39;;;;;;;4.38;3.90;;;34.10;27.40;;;;;;5073064;28;20187;-81
2022/05/18 12:46:14;;;;;;;4.30;4.00;;;34.80;25.80;;;;;;5075701;28;20184;-82
2022/05/18 12:49:04;;;;;;;4.55;4.13;;;35.20;25.40;;;;;;5072034;28;20293;-82
2022/05/18 12:51:32;;;;;;;4.88;4.47;;;35.60;25.30;;;;;;5079371;28;20175;-81
2022/05/18 12:54:13;;;;;;;5.93;4.80;;;35.90;25.20;;;;;;5079505;28;20277;-82
2022/05/18 12:56:38;;;;;;;4.53;4.18;;;35.20;25.80;;;;;;5070547;28;20187;-81
2022/05/18 12:59:17;;;;;;;4.60;4.22;;;35.10;26.00;;;;;;5079154;28;20196;-82
2022/05/18 13:01:47;;;;;;;4.90;4.50;;;35.10;25.90;;;;;;5072668;28;20179;-82
2022/05/18 13:04:15;;;;;;;5.05;4.57;;;35.50;26.20;;;;;;5072129;28;20279;-81
2022/05/18 13:06:49;;;;;;;4.60;4.20;;;36.00;25.60;;;;;;5069822;28;20228;-81
2022/05/18 13:09:26;;;;;;;4.57;4.28;;;36.30;24.60;;;;;;5075808;28;20195;-83
2022/05/18 13:12:25;;;;;;;4.95;4.45;;;35.90;24.30;;;;;;5071900;28;20175;-82
2022/05/18 13:15:03;;;;;;;4.55;4.07;;;36.20;24.80;;;;;;5075145;28;20682;-82
2022/05/18 13:17:49;;;;;;;4.25;3.95;;;35.90;24.50;;;;;;5078719;28;20199;-81
2022/05/18 13:20:21;;;;;;;4.32;3.95;;;35.90;24.80;;;;;;5073685;28;20207;-82
2022/05/18 13:22:58;;;;;;;4.80;4.43;;;36.10;24.10;;;;;;5075871;28;20214;-82